createdAt,value
2023-01-19T00:01:44.338Z,11.83
2023-01-19T00:04:15.404Z,11.60
2023-01-19T00:06:43.821Z,11.40
2023-01-19T00:09:12.761Z,11.67
2023-01-19T00:11:43.679Z,10.90
2023-01-19T00:14:12.176Z,10.93
2023-01-19T00:16:43.031Z,10.77
2023-01-19T00:19:14.416Z,11.43
2023-01-19T00:21:42.724Z,11.20
2023-01-19T00:24:14.385Z,11.33
2023-01-19T00:26:44.928Z,11.10
2023-01-19T00:29:14.081Z,11.37
2023-01-19T00:31:43.509Z,11.87
2023-01-19T00:34:12.134Z,11.07
2023-01-19T00:36:42.376Z,11.27
2023-01-19T00:39:10.682Z,11.67
2023-01-19T00:41:56.350Z,10.73
2023-01-19T00:44:26.086Z,10.27
2023-01-19T00:46:54.514Z,11.57
2023-01-19T00:49:23.295Z,11.80
2023-01-19T00:51:53.980Z,10.97
2023-01-19T00:54:23.578Z,10.63
2023-01-19T00:56:51.702Z,11.57
2023-01-19T00:59:19.803Z,10.50
2023-01-19T01:01:48.415Z,11.67
2023-01-19T01:04:16.901Z,11.00
2023-01-19T01:06:45.323Z,11.00
2023-01-19T01:09:15.791Z,12.10
2023-01-19T01:11:44.605Z,11.00
2023-01-19T01:14:14.344Z,11.23
2023-01-19T01:16:43.317Z,10.63
2023-01-19T01:19:11.781Z,11.33
2023-01-19T01:21:41.707Z,11.23
2023-01-19T01:24:11.208Z,10.50
2023-01-19T01:26:41.181Z,10.30
2023-01-19T01:29:09.631Z,11.47
2023-01-19T01:31:37.870Z,11.33
2023-01-19T01:34:07.620Z,10.77
2023-01-19T01:36:36.236Z,10.40
2023-01-19T01:39:05.179Z,10.50
2023-01-19T01:41:33.925Z,10.47
2023-01-19T01:44:08.438Z,10.70
2023-01-19T01:46:36.941Z,9.97
2023-01-19T01:49:09.902Z,10.47
2023-01-19T01:51:43.704Z,10.87
2023-01-19T01:54:21.776Z,10.10
2023-01-19T01:56:58.842Z,11.13
2023-01-19T01:59:35.074Z,10.77
2023-01-19T02:02:25.405Z,9.83
2023-01-19T02:04:57.719Z,10.33
2023-01-19T02:07:50.951Z,10.17
2023-01-19T02:10:38.292Z,10.13
2023-01-19T02:13:21.893Z,10.20
2023-01-19T02:15:55.737Z,10.73
2023-01-19T02:18:26.076Z,10.57
2023-01-19T02:21:04.876Z,9.83
2023-01-19T02:23:50.778Z,10.87
2023-01-19T02:26:23.595Z,9.87
2023-01-19T02:28:55.209Z,10.47
2023-01-19T02:31:23.488Z,10.50
2023-01-19T02:33:52.476Z,9.83
2023-01-19T02:36:26.645Z,9.63
2023-01-19T02:38:58.708Z,9.63
2023-01-19T02:41:30.673Z,10.57
2023-01-19T02:44:00.792Z,9.73
2023-01-19T02:46:29.067Z,10.07
2023-01-19T02:49:01.715Z,10.07
2023-01-19T02:51:30.612Z,9.67
2023-01-19T02:54:39.337Z,10.60
2023-01-19T02:57:38.796Z,9.97
2023-01-19T03:00:23.544Z,10.87
2023-01-19T03:03:07.022Z,10.23
2023-01-19T03:05:53.600Z,10.10
2023-01-19T03:08:34.911Z,9.67
2023-01-19T03:11:07.172Z,9.13
2023-01-19T03:13:44.229Z,9.50
2023-01-19T03:16:21.848Z,10.10
2023-01-19T03:18:55.425Z,10.93
2023-01-19T03:21:28.382Z,10.23
2023-01-19T03:24:03.377Z,9.43
2023-01-19T03:26:42.018Z,10.60
2023-01-19T03:29:13.754Z,9.83
2023-01-19T03:31:44.919Z,9.83
2023-01-19T03:34:16.350Z,9.97
2023-01-19T03:36:46.933Z,9.83
2023-01-19T03:39:19.825Z,9.87
2023-01-19T03:41:53.900Z,9.67
2023-01-19T03:44:23.719Z,9.30
2023-01-19T03:46:53.068Z,9.77
2023-01-19T03:49:21.442Z,10.73
2023-01-19T03:51:49.912Z,10.83
2023-01-19T03:54:18.436Z,11.13
2023-01-19T03:56:47.366Z,10.17
2023-01-19T03:59:18.112Z,10.10
2023-01-19T04:01:47.587Z,10.47
2023-01-19T04:04:17.019Z,10.40
2023-01-19T04:06:45.551Z,11.47
2023-01-19T04:09:14.028Z,10.77
2023-01-19T04:11:42.608Z,11.07
2023-01-19T04:14:11.381Z,11.50
2023-01-19T04:16:41.454Z,11.40
2023-01-19T04:19:09.879Z,11.63
2023-01-19T04:21:38.108Z,12.17
2023-01-19T04:24:07.270Z,11.60
2023-01-19T04:26:35.739Z,12.33
2023-01-19T04:29:05.833Z,11.77
2023-01-19T04:31:35.838Z,10.87
2023-01-19T04:34:05.689Z,11.47
2023-01-19T04:36:33.909Z,11.73
2023-01-19T04:39:02.223Z,11.63
2023-01-19T04:41:31.224Z,12.10
2023-01-19T04:43:59.312Z,11.47
2023-01-19T04:46:27.772Z,12.13
2023-01-19T04:48:55.988Z,12.30
2023-01-19T04:51:25.717Z,12.70
2023-01-19T04:53:55.574Z,11.93
2023-01-19T04:56:25.590Z,14.83
2023-01-19T04:58:53.917Z,13.70
2023-01-19T05:01:22.201Z,14.50
2023-01-19T05:03:50.717Z,12.73
2023-01-19T05:06:19.021Z,12.97
2023-01-19T05:08:48.975Z,14.07
2023-01-19T05:11:17.494Z,13.50
2023-01-19T05:13:45.826Z,14.97
2023-01-19T05:16:14.421Z,13.93
2023-01-19T05:18:43.115Z,14.00
2023-01-19T05:21:11.388Z,14.87
2023-01-19T05:23:39.681Z,15.00
2023-01-19T05:26:10.539Z,14.97
2023-01-19T05:28:39.024Z,14.30
2023-01-19T05:31:08.939Z,15.57
2023-01-19T05:33:37.636Z,13.97
2023-01-19T05:36:07.656Z,14.27
2023-01-19T05:38:36.321Z,16.03
2023-01-19T05:41:04.727Z,16.30
2023-01-19T05:43:37.078Z,15.60
2023-01-19T05:46:13.595Z,15.73
2023-01-19T05:48:42.224Z,16.17
2023-01-19T05:51:10.438Z,14.77
2023-01-19T05:53:40.122Z,14.50
2023-01-19T05:56:11.273Z,15.77
2023-01-19T05:58:43.491Z,15.53
2023-01-19T06:01:11.980Z,15.43
2023-01-19T06:03:41.174Z,15.27
2023-01-19T06:06:09.879Z,14.87
2023-01-19T06:08:38.345Z,14.90
2023-01-19T06:11:08.715Z,15.83
2023-01-19T06:13:37.293Z,15.70
2023-01-19T06:16:08.828Z,15.60
2023-01-19T06:18:37.328Z,17.77
2023-01-19T06:21:06.869Z,16.40
2023-01-19T06:23:37.008Z,15.40
2023-01-19T06:26:05.805Z,16.00
2023-01-19T06:28:33.967Z,15.90
2023-01-19T06:31:02.282Z,17.47
2023-01-19T06:33:34.894Z,16.07
2023-01-19T06:36:03.554Z,17.43
2023-01-19T06:38:32.866Z,16.50
2023-01-19T06:41:03.246Z,14.37
2023-01-19T06:43:32.522Z,15.00
2023-01-19T06:46:02.458Z,15.67
2023-01-19T06:48:35.412Z,16.13
2023-01-19T06:51:03.722Z,16.17
2023-01-19T06:53:32.437Z,15.67
2023-01-19T06:56:02.052Z,15.23
2023-01-19T06:58:32.860Z,15.57
2023-01-19T07:01:05.013Z,14.43
2023-01-19T07:03:36.111Z,14.80
2023-01-19T07:06:06.959Z,14.70
2023-01-19T07:08:35.730Z,15.20
2023-01-19T07:11:26.842Z,14.50
2023-01-19T07:13:56.983Z,14.70
2023-01-19T07:16:26.313Z,14.37
2023-01-19T07:18:58.038Z,14.60
2023-01-19T07:21:29.305Z,14.40
2023-01-19T07:23:58.660Z,14.57
2023-01-19T07:26:29.422Z,14.33
2023-01-19T07:28:57.756Z,14.37
2023-01-19T07:31:25.959Z,14.17
2023-01-19T07:33:56.410Z,13.93
2023-01-19T07:36:24.855Z,13.67
2023-01-19T07:38:53.495Z,14.47
2023-01-19T07:41:22.603Z,13.30
2023-01-19T07:44:01.736Z,13.67
2023-01-19T07:46:30.543Z,14.53
2023-01-19T07:49:00.825Z,13.70
2023-01-19T07:51:30.299Z,13.63
2023-01-19T07:53:58.792Z,13.13
2023-01-19T07:56:27.972Z,13.93
2023-01-19T07:58:56.466Z,14.00
2023-01-19T08:01:25.336Z,14.43
2023-01-19T08:03:53.691Z,13.20
2023-01-19T08:06:25.143Z,13.70
2023-01-19T08:08:54.266Z,15.03
2023-01-19T08:11:22.987Z,13.70
2023-01-19T08:13:51.973Z,13.77
2023-01-19T08:16:20.483Z,14.50
2023-01-19T08:18:48.979Z,14.90
2023-01-19T08:21:17.918Z,14.20
2023-01-19T08:23:53.966Z,14.47
2023-01-19T08:26:27.546Z,14.77
2023-01-19T08:28:56.838Z,15.17
2023-01-19T08:31:27.161Z,15.13
2023-01-19T08:33:55.915Z,14.87
2023-01-19T08:36:25.357Z,14.37
2023-01-19T08:39:00.169Z,15.93
2023-01-19T08:41:29.715Z,15.17
2023-01-19T08:44:01.573Z,22.57
2023-01-19T08:46:30.194Z,15.73
2023-01-19T08:49:00.453Z,14.40
2023-01-19T08:51:28.860Z,13.90
2023-01-19T08:54:00.606Z,15.10
2023-01-19T08:56:29.407Z,13.30
2023-01-19T08:59:08.608Z,12.83
2023-01-19T09:01:38.629Z,12.70
2023-01-19T09:04:12.964Z,12.67
2023-01-19T09:06:41.877Z,12.83
2023-01-19T09:09:14.019Z,13.93
2023-01-19T09:11:42.717Z,12.57
2023-01-19T09:14:12.441Z,11.93
2023-01-19T09:16:43.987Z,11.70
2023-01-19T09:19:13.049Z,12.20
2023-01-19T09:21:41.462Z,12.27
2023-01-19T09:24:10.034Z,12.20
2023-01-19T09:26:40.917Z,14.07
2023-01-19T09:29:09.137Z,12.57
2023-01-19T09:31:40.644Z,12.07
2023-01-19T09:34:11.402Z,13.83
2023-01-19T09:36:40.517Z,15.37
2023-01-19T09:39:09.525Z,11.63
2023-01-19T09:41:41.540Z,13.43
2023-01-19T09:44:18.864Z,12.37
2023-01-19T09:46:47.022Z,13.67
2023-01-19T09:49:17.834Z,12.33
2023-01-19T09:51:50.259Z,12.60
2023-01-19T09:54:21.527Z,12.57
2023-01-19T09:56:52.992Z,12.10
2023-01-19T09:59:29.385Z,13.40
2023-01-19T10:02:26.360Z,11.83
2023-01-19T10:05:01.740Z,11.07
2023-01-19T10:07:42.461Z,13.23
2023-01-19T10:10:22.352Z,13.03
2023-01-19T10:13:12.992Z,29.87
2023-01-19T10:15:56.144Z,13.60
2023-01-19T10:18:31.140Z,14.03
2023-01-19T10:21:06.101Z,15.90
2023-01-19T10:23:41.393Z,12.03
2023-01-19T10:26:17.242Z,11.73
2023-01-19T10:28:52.988Z,12.43
2023-01-19T10:31:25.051Z,12.53
2023-01-19T10:33:57.620Z,17.40
2023-01-19T10:36:31.013Z,15.30
2023-01-19T10:39:01.112Z,14.00
2023-01-19T10:41:37.336Z,12.83
2023-01-19T10:44:09.868Z,11.50
2023-01-19T10:46:44.926Z,12.97
2023-01-19T10:49:28.403Z,11.27
2023-01-19T10:51:58.644Z,11.00
2023-01-19T10:54:29.407Z,9.87
2023-01-19T10:57:07.137Z,28.07
2023-01-19T10:59:39.808Z,8.00
2023-01-19T11:02:19.627Z,7.30
2023-01-19T11:04:50.114Z,8.93
2023-01-19T11:07:23.974Z,7.93
2023-01-19T11:10:23.032Z,7.40
2023-01-19T11:13:02.928Z,7.57
2023-01-19T11:15:35.918Z,7.60
2023-01-19T11:18:07.110Z,7.67
2023-01-19T11:20:52.687Z,7.83
2023-01-19T11:23:27.623Z,6.93
2023-01-19T11:25:59.141Z,7.63
2023-01-19T11:28:34.107Z,7.77
2023-01-19T11:31:20.878Z,7.53
2023-01-19T11:33:52.188Z,7.20
2023-01-19T11:36:23.221Z,6.13
2023-01-19T11:38:53.974Z,6.70
2023-01-19T11:41:24.493Z,6.03
2023-01-19T11:43:58.163Z,6.27
2023-01-19T11:46:34.875Z,6.70
2023-01-19T11:49:12.078Z,6.83
2023-01-19T11:51:51.207Z,6.40
2023-01-19T11:54:24.567Z,6.23
2023-01-19T11:56:55.583Z,5.93
2023-01-19T11:59:25.084Z,8.57
2023-01-19T12:01:59.546Z,6.67
2023-01-19T12:04:31.986Z,6.90
2023-01-19T12:07:07.114Z,6.60
2023-01-19T12:09:42.738Z,6.90
2023-01-19T12:12:27.331Z,6.93
2023-01-19T12:15:01.260Z,7.10
2023-01-19T12:17:35.492Z,6.30
2023-01-19T12:20:16.156Z,7.93
2023-01-19T12:22:51.547Z,5.80
2023-01-19T12:25:24.469Z,5.60
2023-01-19T12:27:55.189Z,7.00
2023-01-19T12:30:26.378Z,5.20
2023-01-19T12:33:23.116Z,5.83
2023-01-19T12:36:01.145Z,5.30
2023-01-19T12:38:53.228Z,5.43
2023-01-19T12:41:24.945Z,4.90
2023-01-19T12:44:19.199Z,5.10
2023-01-19T12:46:49.879Z,5.37
2023-01-19T12:49:26.618Z,5.23
2023-01-19T12:52:11.688Z,5.07
2023-01-19T12:54:43.651Z,5.27
2023-01-19T12:57:22.526Z,6.60
2023-01-19T12:59:57.709Z,4.80
2023-01-19T13:02:47.762Z,5.63
2023-01-19T13:05:27.586Z,5.47
2023-01-19T13:08:19.665Z,6.47
2023-01-19T13:11:14.867Z,5.63
2023-01-19T13:13:45.236Z,5.23
2023-01-19T13:16:51.355Z,5.80
2023-01-19T13:19:25.552Z,5.87
2023-01-19T13:21:55.604Z,9.67
2023-01-19T13:24:26.449Z,13.07
2023-01-19T13:26:57.624Z,13.13
2023-01-19T13:29:31.557Z,31.97
2023-01-19T13:32:03.677Z,7.13
2023-01-19T13:34:36.249Z,5.27
2023-01-19T13:37:06.409Z,6.03
2023-01-19T13:39:38.593Z,6.40
2023-01-19T13:42:14.327Z,6.97
2023-01-19T13:44:52.931Z,8.43
2023-01-19T13:47:25.417Z,7.77
2023-01-19T13:49:59.904Z,6.90
2023-01-19T13:52:35.014Z,7.10
2023-01-19T13:55:09.694Z,6.83
2023-01-19T13:57:43.040Z,6.73
2023-01-19T14:00:19.260Z,7.77
2023-01-19T14:03:00.455Z,7.27
2023-01-19T14:05:32.677Z,7.10
2023-01-19T14:08:08.225Z,6.87
2023-01-19T14:10:40.940Z,6.20
2023-01-19T14:13:16.626Z,5.77
2023-01-19T14:15:48.624Z,6.47
2023-01-19T14:18:28.941Z,6.07
2023-01-19T14:21:02.736Z,6.13
2023-01-19T14:23:45.797Z,5.67
2023-01-19T14:26:43.253Z,6.97
2023-01-19T14:29:24.853Z,6.00
2023-01-19T14:32:05.170Z,6.90
2023-01-19T14:34:39.293Z,6.27
2023-01-19T14:37:16.868Z,5.87
2023-01-19T14:39:52.006Z,6.60
2023-01-19T14:42:28.273Z,6.50
2023-01-19T14:45:01.505Z,6.23
2023-01-19T14:47:35.636Z,6.43
2023-01-19T14:50:18.882Z,7.00
2023-01-19T14:52:53.699Z,6.93
2023-01-19T14:55:27.707Z,6.93
2023-01-19T14:57:56.639Z,6.93
2023-01-19T15:00:26.589Z,6.80
2023-01-19T15:02:54.718Z,7.07
2023-01-19T15:05:23.220Z,7.33
2023-01-19T15:07:52.760Z,7.63
2023-01-19T15:10:25.632Z,7.73
2023-01-19T15:12:56.027Z,8.47
2023-01-19T15:15:28.763Z,8.37
2023-01-19T15:17:57.417Z,8.10
2023-01-19T15:20:27.004Z,8.77
2023-01-19T15:23:03.344Z,8.30
2023-01-19T15:25:33.398Z,7.87
2023-01-19T15:28:04.303Z,7.33
2023-01-19T15:30:33.804Z,7.57
2023-01-19T15:33:02.586Z,8.13
2023-01-19T15:35:38.508Z,14.67
2023-01-19T15:38:06.670Z,12.50
2023-01-19T15:40:36.817Z,13.60
2023-01-19T15:43:05.253Z,12.20
2023-01-19T15:45:36.923Z,12.40
2023-01-19T15:48:07.295Z,14.80
2023-01-19T15:50:39.125Z,14.57
2023-01-19T15:53:09.580Z,13.87
2023-01-19T15:55:39.390Z,13.47
2023-01-19T15:58:07.728Z,12.27
2023-01-19T16:00:36.720Z,12.83
2023-01-19T16:03:05.451Z,13.00
2023-01-19T16:05:42.520Z,12.87
2023-01-19T16:08:12.041Z,15.43
2023-01-19T16:10:42.427Z,14.70
2023-01-19T16:13:13.588Z,14.77
2023-01-19T16:15:42.749Z,13.30
2023-01-19T16:18:10.934Z,14.70
2023-01-19T16:20:39.324Z,13.57
2023-01-19T16:23:15.119Z,14.73
2023-01-19T16:25:45.711Z,15.77
2023-01-19T16:28:14.036Z,17.43
2023-01-19T16:30:42.352Z,17.97
2023-01-19T16:33:13.680Z,15.87
2023-01-19T16:35:42.146Z,14.13
2023-01-19T16:38:10.474Z,14.93
2023-01-19T16:40:39.344Z,14.73
2023-01-19T16:43:09.025Z,14.43
2023-01-19T16:45:58.229Z,14.50
2023-01-19T16:48:31.838Z,14.37
2023-01-19T16:51:04.401Z,14.27
2023-01-19T16:53:34.886Z,15.60
2023-01-19T16:56:22.149Z,15.97
2023-01-19T16:58:54.759Z,13.77
2023-01-19T17:01:32.408Z,15.53
2023-01-19T17:04:06.899Z,14.00
2023-01-19T17:06:37.252Z,15.20
2023-01-19T17:09:09.629Z,16.30
2023-01-19T17:11:42.930Z,17.63
2023-01-19T17:14:25.516Z,17.63
2023-01-19T17:16:55.068Z,18.63
2023-01-19T17:19:23.864Z,18.57
2023-01-19T17:21:52.824Z,18.43
2023-01-19T17:24:24.086Z,23.63
2023-01-19T17:26:53.001Z,19.47
2023-01-19T17:29:22.893Z,20.40
2023-01-19T17:31:51.776Z,18.10
2023-01-19T17:34:20.332Z,18.50
2023-01-19T17:36:48.733Z,28.40
2023-01-19T17:39:18.620Z,19.77
2023-01-19T17:41:50.358Z,18.20
2023-01-19T17:44:18.808Z,18.20
2023-01-19T17:46:48.728Z,16.50
2023-01-19T17:49:17.080Z,16.33
2023-01-19T17:51:45.631Z,17.00
2023-01-19T17:54:14.543Z,25.50
2023-01-19T17:56:42.830Z,22.30
2023-01-19T17:59:11.139Z,20.50
2023-01-19T18:01:40.748Z,21.50
2023-01-19T18:04:10.737Z,47.37
2023-01-19T18:06:39.645Z,24.03
2023-01-19T18:09:08.337Z,20.20
2023-01-19T18:11:36.789Z,19.70
2023-01-19T18:14:06.836Z,20.80
2023-01-19T18:16:36.124Z,18.67
2023-01-19T18:19:05.405Z,20.80
2023-01-19T18:21:37.534Z,20.33
2023-01-19T18:24:07.676Z,20.43
2023-01-19T18:26:40.288Z,22.33
2023-01-19T18:29:08.808Z,22.50
2023-01-19T18:31:37.325Z,22.60
2023-01-19T18:34:06.358Z,22.77
2023-01-19T18:36:37.444Z,24.90
2023-01-19T18:39:06.204Z,24.80
2023-01-19T18:41:37.212Z,23.77
2023-01-19T18:44:05.393Z,25.03
2023-01-19T18:46:34.022Z,24.70
2023-01-19T18:49:03.275Z,25.23
2023-01-19T18:51:32.601Z,22.47
2023-01-19T18:54:02.231Z,21.17
2023-01-19T18:56:30.483Z,20.67
2023-01-19T18:58:59.048Z,21.03
2023-01-19T19:01:32.880Z,19.57
2023-01-19T19:04:02.066Z,20.90
2023-01-19T19:06:31.154Z,21.97
2023-01-19T19:09:00.047Z,21.20
2023-01-19T19:11:31.231Z,22.27
2023-01-19T19:14:01.432Z,21.50
2023-01-19T19:16:30.423Z,22.17
2023-01-19T19:19:00.770Z,21.30
2023-01-19T19:21:29.375Z,23.63
2023-01-19T19:24:00.211Z,27.47
2023-01-19T19:26:30.423Z,25.10
2023-01-19T19:28:59.742Z,24.83
2023-01-19T19:31:30.393Z,24.03
2023-01-19T19:34:00.108Z,23.03
2023-01-19T19:36:30.003Z,23.33
2023-01-19T19:39:00.432Z,26.33
2023-01-19T19:41:32.473Z,33.07
2023-01-19T19:44:03.856Z,24.30
2023-01-19T19:46:32.655Z,30.90
2023-01-19T19:49:00.909Z,24.93
2023-01-19T19:51:30.881Z,25.57
2023-01-19T19:54:01.040Z,26.60
2023-01-19T19:56:34.722Z,25.10
2023-01-19T19:59:03.285Z,25.70
2023-01-19T20:01:34.748Z,23.93
2023-01-19T20:04:08.667Z,23.00
2023-01-19T20:06:40.062Z,26.70
2023-01-19T20:09:12.949Z,27.50
2023-01-19T20:11:43.540Z,24.50
2023-01-19T20:14:16.403Z,24.90
2023-01-19T20:16:45.808Z,24.23
2023-01-19T20:19:14.162Z,22.27
2023-01-19T20:21:43.317Z,25.57
2023-01-19T20:24:14.805Z,23.57
2023-01-19T20:26:47.441Z,21.97
2023-01-19T20:29:20.661Z,26.33
2023-01-19T20:31:54.156Z,23.77
2023-01-19T20:34:28.011Z,22.80
2023-01-19T20:36:56.960Z,24.17
2023-01-19T20:39:26.493Z,23.93
2023-01-19T20:41:56.512Z,26.07
2023-01-19T20:44:26.945Z,27.70
2023-01-19T20:46:58.267Z,27.27
2023-01-19T20:49:29.098Z,26.17
2023-01-19T20:51:57.327Z,25.33
2023-01-19T20:54:30.349Z,25.13
2023-01-19T20:57:01.118Z,23.97
2023-01-19T20:59:29.398Z,22.53
2023-01-19T21:01:57.759Z,26.33
2023-01-19T21:04:26.233Z,24.07
2023-01-19T21:06:55.389Z,23.23
2023-01-19T21:09:23.770Z,24.80
2023-01-19T21:11:52.484Z,22.47
2023-01-19T21:14:25.025Z,25.27
2023-01-19T21:16:56.542Z,24.07
2023-01-19T21:19:24.659Z,22.87
2023-01-19T21:21:55.239Z,23.37
2023-01-19T21:24:23.694Z,23.70
2023-01-19T21:26:53.816Z,23.47
2023-01-19T21:29:23.612Z,23.53
2023-01-19T21:31:51.858Z,25.73
2023-01-19T21:34:20.342Z,26.00
2023-01-19T21:36:48.769Z,25.23
2023-01-19T21:39:17.526Z,22.93
2023-01-19T21:41:46.088Z,23.27
2023-01-19T21:44:15.753Z,22.03
2023-01-19T21:46:45.390Z,23.27
2023-01-19T21:49:18.404Z,22.87
2023-01-19T21:51:48.100Z,23.33
2023-01-19T21:54:16.494Z,22.87
2023-01-19T21:56:46.322Z,23.87
2023-01-19T21:59:16.196Z,22.67
2023-01-19T22:01:47.753Z,22.73
2023-01-19T22:04:16.768Z,24.80
2023-01-19T22:06:45.174Z,24.80
2023-01-19T22:09:13.730Z,21.63
2023-01-19T22:11:41.892Z,22.20
2023-01-19T22:14:11.558Z,26.40
2023-01-19T22:16:40.017Z,23.73
2023-01-19T22:19:14.636Z,24.57
2023-01-19T22:21:43.003Z,22.73
2023-01-19T22:24:12.349Z,23.97
2023-01-19T22:26:40.721Z,22.77
2023-01-19T22:29:11.404Z,20.93
2023-01-19T22:31:40.818Z,22.47
2023-01-19T22:34:11.033Z,21.50
2023-01-19T22:36:39.927Z,21.17
2023-01-19T22:39:11.145Z,25.37
2023-01-19T22:41:42.096Z,21.33
2023-01-19T22:44:12.749Z,22.23
2023-01-19T22:46:41.887Z,24.53
2023-01-19T22:49:16.952Z,20.80
2023-01-19T22:51:45.892Z,21.37
2023-01-19T22:54:14.819Z,21.90
2023-01-19T22:56:43.896Z,22.93
2023-01-19T22:59:12.280Z,21.13
2023-01-19T23:01:42.836Z,20.17
2023-01-19T23:04:15.122Z,20.00
2023-01-19T23:06:47.038Z,21.43
2023-01-19T23:09:16.551Z,21.23
2023-01-19T23:11:48.613Z,18.70
2023-01-19T23:14:19.132Z,22.50
2023-01-19T23:16:50.674Z,25.33
2023-01-19T23:19:20.642Z,19.73
2023-01-19T23:21:52.188Z,18.70
2023-01-19T23:24:20.497Z,20.97
2023-01-19T23:26:50.744Z,20.93
2023-01-19T23:29:19.806Z,21.60
2023-01-19T23:31:50.128Z,18.20
2023-01-19T23:34:20.030Z,21.67
2023-01-19T23:36:48.206Z,20.10
2023-01-19T23:39:18.265Z,17.87
2023-01-19T23:41:46.850Z,18.03
2023-01-19T23:44:15.597Z,17.53
2023-01-19T23:46:44.061Z,21.90
2023-01-19T23:49:13.099Z,17.57
2023-01-19T23:51:43.612Z,19.30
2023-01-19T23:54:12.362Z,20.33
2023-01-19T23:56:42.754Z,18.00
2023-01-19T23:59:12.706Z,21.33
